createdAt,value
2019-06-08T00:00:20.853Z,27.30
2019-06-08T00:02:55.117Z,27.10
2019-06-08T00:05:30.077Z,27.00
2019-06-08T00:08:04.168Z,26.90
2019-06-08T00:10:38.252Z,26.80
2019-06-08T00:13:13.143Z,26.80
2019-06-08T00:15:47.349Z,26.80
2019-06-08T00:18:21.672Z,27.00
2019-06-08T00:20:55.514Z,27.30
2019-06-08T00:23:29.763Z,27.30
2019-06-08T00:26:02.627Z,27.50
2019-06-08T00:28:36.855Z,27.70
2019-06-08T00:31:10.645Z,27.70
2019-06-08T00:33:44.910Z,27.60
2019-06-08T00:36:18.792Z,27.70
2019-06-08T00:38:52.829Z,27.70
2019-06-08T00:41:26.895Z,27.50
2019-06-08T00:44:01.813Z,27.50
2019-06-08T00:46:35.553Z,27.30
2019-06-08T00:49:09.775Z,27.20
2019-06-08T00:51:44.397Z,27.30
2019-06-08T00:54:19.331Z,27.70
2019-06-08T00:56:52.709Z,27.50
2019-06-08T00:59:27.785Z,27.40
2019-06-08T01:02:01.329Z,27.30
2019-06-08T01:04:35.560Z,27.50
2019-06-08T01:07:10.423Z,27.60
2019-06-08T01:09:44.039Z,27.40
2019-06-08T01:12:18.683Z,27.10
2019-06-08T01:14:53.160Z,27.00
2019-06-08T01:17:27.629Z,26.80
2019-06-08T01:20:02.186Z,26.80
2019-06-08T01:22:35.982Z,26.90
2019-06-08T01:25:09.511Z,26.90
2019-06-08T01:27:43.733Z,26.70
2019-06-08T01:30:18.460Z,27.20
2019-06-08T01:32:52.661Z,27.50
2019-06-08T01:35:26.995Z,27.70
2019-06-08T01:38:00.320Z,28.00
2019-06-08T01:40:34.380Z,28.20
2019-06-08T01:43:08.784Z,28.20
2019-06-08T01:45:43.075Z,28.30
2019-06-08T01:48:20.349Z,28.40
2019-06-08T01:50:52.987Z,28.50
2019-06-08T01:53:26.898Z,28.50
2019-06-08T01:56:01.260Z,28.40
2019-06-08T01:58:36.374Z,28.20
2019-06-08T02:01:09.903Z,28.00
2019-06-08T02:03:44.170Z,27.90
2019-06-08T02:06:18.494Z,27.70
2019-06-08T02:08:53.283Z,27.80
2019-06-08T02:11:28.713Z,27.70
2019-06-08T02:14:03.218Z,27.90
2019-06-08T02:16:38.742Z,28.10
2019-06-08T02:19:12.563Z,28.20
2019-06-08T02:21:46.670Z,28.20
2019-06-08T02:24:20.444Z,27.80
2019-06-08T02:26:54.715Z,27.80
2019-06-08T02:29:29.430Z,27.70
2019-06-08T02:32:03.857Z,27.70
2019-06-08T02:34:38.305Z,27.50
2019-06-08T02:37:13.022Z,27.70
2019-06-08T02:39:46.911Z,27.60
2019-06-08T02:42:20.611Z,27.70
2019-06-08T02:44:54.420Z,27.90
2019-06-08T02:47:28.405Z,27.70
2019-06-08T02:50:03.060Z,27.70
2019-06-08T02:52:40.598Z,27.80
2019-06-08T02:55:13.327Z,28.00
2019-06-08T02:57:47.773Z,28.00
2019-06-08T03:00:22.172Z,28.10
2019-06-08T03:02:57.715Z,27.80
2019-06-08T03:05:32.529Z,27.50
2019-06-08T03:08:09.526Z,27.60
2019-06-08T03:10:42.625Z,27.60
2019-06-08T03:13:16.967Z,27.70
2019-06-08T03:15:51.570Z,27.90
2019-06-08T03:18:25.274Z,28.10
2019-06-08T03:20:59.482Z,28.20
2019-06-08T03:23:34.205Z,28.10
2019-06-08T03:26:08.544Z,28.20
2019-06-08T03:28:44.085Z,28.20
2019-06-08T03:31:17.382Z,28.30
2019-06-08T03:33:55.700Z,28.30
2019-06-08T03:36:28.072Z,28.20
2019-06-08T03:39:01.860Z,28.00
2019-06-08T03:41:38.489Z,28.20
2019-06-08T03:44:12.867Z,28.20
2019-06-08T03:46:46.191Z,28.20
2019-06-08T03:49:37.163Z,28.20
2019-06-08T03:51:56.452Z,28.20
2019-06-08T03:54:29.876Z,28.30
2019-06-08T03:57:03.213Z,28.30
2019-06-08T03:59:38.545Z,28.40
2019-06-08T04:02:12.888Z,28.50
2019-06-08T04:04:47.100Z,28.60
2019-06-08T04:07:20.705Z,28.70
2019-06-08T04:09:54.929Z,28.70
2019-06-08T04:12:29.164Z,28.80
2019-06-08T04:15:03.395Z,28.90
2019-06-08T04:17:39.696Z,29.00
2019-06-08T04:20:14.281Z,29.20
2019-06-08T04:22:50.452Z,29.30
2019-06-08T04:25:25.515Z,29.40
2019-06-08T04:28:01.079Z,29.30
2019-06-08T04:30:35.189Z,29.20
2019-06-08T04:33:08.914Z,29.20
2019-06-08T04:35:42.778Z,29.20
2019-06-08T04:38:17.559Z,29.20
2019-06-08T04:40:51.647Z,29.20
2019-06-08T04:43:25.540Z,29.40
2019-06-08T04:45:59.687Z,29.40
2019-06-08T04:48:34.485Z,29.50
2019-06-08T04:51:08.730Z,29.60
2019-06-08T04:53:45.109Z,29.60
2019-06-08T04:56:18.771Z,29.70
2019-06-08T04:58:53.016Z,29.80
2019-06-08T05:01:27.695Z,29.80
2019-06-08T05:04:01.835Z,29.70
2019-06-08T05:06:36.065Z,29.80
2019-06-08T05:09:10.327Z,29.80
2019-06-08T05:11:45.256Z,29.90
2019-06-08T05:14:19.879Z,29.90
2019-06-08T05:16:53.940Z,29.80
2019-06-08T05:19:28.205Z,30.00
2019-06-08T05:22:02.403Z,30.20
2019-06-08T05:24:36.606Z,30.00
2019-06-08T05:27:10.001Z,30.00
2019-06-08T05:29:43.269Z,29.80
2019-06-08T05:32:17.826Z,29.80
2019-06-08T05:34:52.036Z,30.00
2019-06-08T05:37:25.744Z,29.80
2019-06-08T05:40:00.321Z,29.80
2019-06-08T05:42:34.595Z,30.00
2019-06-08T05:45:08.292Z,30.00
2019-06-08T05:47:43.863Z,29.70
2019-06-08T05:50:18.468Z,28.70
2019-06-08T05:52:53.204Z,28.60
2019-06-08T05:55:27.101Z,28.90
2019-06-08T05:57:59.588Z,28.90
2019-06-08T06:00:32.039Z,29.20
2019-06-08T06:03:05.333Z,29.70
2019-06-08T06:05:38.321Z,29.80
2019-06-08T06:08:19.033Z,29.90
2019-06-08T06:10:44.843Z,30.00
2019-06-08T06:13:18.300Z,29.70
2019-06-08T06:15:51.703Z,29.50
2019-06-08T06:18:24.980Z,30.10
2019-06-08T06:21:10.466Z,30.20
2019-06-08T06:23:33.306Z,30.30
2019-06-08T06:26:06.637Z,29.80
2019-06-08T06:28:39.610Z,30.20
2019-06-08T06:31:12.944Z,30.10
2019-06-08T06:33:45.987Z,30.30
2019-06-08T06:36:19.793Z,30.10
2019-06-08T06:38:53.438Z,29.70
2019-06-08T06:41:25.832Z,29.50
2019-06-08T06:43:57.879Z,29.30
2019-06-08T06:46:32.826Z,28.90
2019-06-08T06:49:04.607Z,29.20
2019-06-08T06:51:38.066Z,29.20
2019-06-08T06:54:10.410Z,30.10
2019-06-08T06:56:45.251Z,30.30
2019-06-08T06:59:18.311Z,30.40
2019-06-08T07:01:55.256Z,30.40
2019-06-08T07:04:25.487Z,29.40
2019-06-08T07:06:58.434Z,29.20
2019-06-08T07:09:30.465Z,28.60
2019-06-08T07:12:04.813Z,28.40
2019-06-08T07:14:38.279Z,28.90
2019-06-08T07:17:11.530Z,29.10
2019-06-08T07:19:44.548Z,29.20
2019-06-08T07:22:17.478Z,29.30
2019-06-08T07:24:50.299Z,29.50
2019-06-08T07:27:22.785Z,29.30
2019-06-08T07:29:54.923Z,29.60
2019-06-08T07:32:28.036Z,29.00
2019-06-08T07:35:01.811Z,29.30
2019-06-08T07:37:35.352Z,29.60
2019-06-08T07:40:09.499Z,29.30
2019-06-08T07:42:41.871Z,29.00
2019-06-08T07:45:15.414Z,28.20
2019-06-08T07:47:49.926Z,28.50
2019-06-08T07:50:22.713Z,27.80
2019-06-08T07:52:56.662Z,28.40
2019-06-08T07:55:31.976Z,28.20
2019-06-08T07:58:06.184Z,28.70
2019-06-08T08:00:40.580Z,29.20
2019-06-08T08:03:14.385Z,29.70
2019-06-08T08:05:50.285Z,29.60
2019-06-08T08:08:24.077Z,29.50
2019-06-08T08:10:58.704Z,29.40
2019-06-08T08:13:31.411Z,28.90
2019-06-08T08:16:03.368Z,28.80
2019-06-08T08:18:37.100Z,28.80
2019-06-08T08:21:21.336Z,28.50
2019-06-08T08:23:47.882Z,28.40
2019-06-08T08:26:21.277Z,28.20
2019-06-08T08:28:59.704Z,28.30
2019-06-08T08:31:31.502Z,28.10
2019-06-08T08:34:06.752Z,28.00
2019-06-08T08:36:41.772Z,27.70
2019-06-08T08:39:17.678Z,28.00
2019-06-08T08:41:56.290Z,27.70
2019-06-08T08:44:28.346Z,27.30
2019-06-08T08:47:02.966Z,27.70
2019-06-08T08:49:38.089Z,27.90
2019-06-08T08:52:12.458Z,27.60
2019-06-08T08:54:47.553Z,27.70
2019-06-08T08:57:21.963Z,27.40
2019-06-08T09:00:00.494Z,27.20
2019-06-08T09:02:31.710Z,27.70
2019-06-08T09:05:05.482Z,28.10
2019-06-08T09:07:39.849Z,28.60
2019-06-08T09:10:14.744Z,28.60
2019-06-08T09:12:52.087Z,28.80
2019-06-08T09:15:25.600Z,28.60
2019-06-08T09:18:01.873Z,28.80
2019-06-08T09:20:37.902Z,29.10
2019-06-08T09:23:16.218Z,29.20
2019-06-08T09:25:48.361Z,29.40
2019-06-08T09:28:22.684Z,29.00
2019-06-08T09:30:59.010Z,29.60
2019-06-08T09:33:33.026Z,29.60
2019-06-08T09:36:08.416Z,29.90
2019-06-08T09:38:42.876Z,29.80
2019-06-08T09:41:18.641Z,29.20
2019-06-08T09:43:53.852Z,29.00
2019-06-08T09:46:28.750Z,28.80
2019-06-08T09:49:07.580Z,28.40
2019-06-08T09:51:38.348Z,28.10
2019-06-08T09:54:12.780Z,28.70
2019-06-08T09:56:48.325Z,29.40
2019-06-08T09:59:22.145Z,29.80
2019-06-08T10:01:59.436Z,30.20
2019-06-08T10:04:31.656Z,30.40
2019-06-08T10:07:08.579Z,30.40
2019-06-08T10:09:43.427Z,30.30
2019-06-08T10:12:18.325Z,30.30
2019-06-08T10:14:52.400Z,30.20
2019-06-08T10:17:27.892Z,29.70
2019-06-08T10:20:03.293Z,29.50
2019-06-08T10:22:38.456Z,30.00
2019-06-08T10:25:12.915Z,29.70
2019-06-08T10:27:47.484Z,29.40
2019-06-08T10:30:22.398Z,29.70
2019-06-08T10:32:58.526Z,29.70
2019-06-08T10:35:31.668Z,29.80
2019-06-08T10:38:09.160Z,30.00
2019-06-08T10:41:04.878Z,30.30
2019-06-08T10:43:33.365Z,30.30
2019-06-08T10:46:14.703Z,30.30
2019-06-08T10:48:42.880Z,30.50
2019-06-08T10:51:18.198Z,30.30
2019-06-08T10:53:53.191Z,30.20
2019-06-08T10:56:30.862Z,30.20
2019-06-08T10:59:04.875Z,30.40
2019-06-08T11:01:38.819Z,30.40
2019-06-08T11:04:13.002Z,30.60
2019-06-08T11:06:47.939Z,30.40
2019-06-08T11:09:21.860Z,30.20
2019-06-08T11:11:57.976Z,30.30
2019-06-08T11:14:31.031Z,30.20
2019-06-08T11:17:05.041Z,30.00
2019-06-08T11:19:40.348Z,30.10
2019-06-08T11:22:15.185Z,30.30
2019-06-08T11:24:50.245Z,30.30
2019-06-08T11:27:24.024Z,30.30
2019-06-08T11:29:59.510Z,30.10
2019-06-08T11:32:33.711Z,29.90
2019-06-08T11:35:10.455Z,29.70
2019-06-08T11:37:43.476Z,29.80
2019-06-08T11:40:20.847Z,30.40
2019-06-08T11:42:54.273Z,30.10
2019-06-08T11:45:29.341Z,30.10
2019-06-08T11:48:04.513Z,30.30
2019-06-08T11:50:43.133Z,30.50
2019-06-08T11:53:18.076Z,30.50
2019-06-08T11:55:52.707Z,30.50
2019-06-08T11:58:30.775Z,30.30
2019-06-08T12:01:11.689Z,30.00
2019-06-08T12:03:43.101Z,30.00
2019-06-08T12:06:18.587Z,29.70
2019-06-08T12:08:54.586Z,29.20
2019-06-08T12:11:28.351Z,28.80
2019-06-08T12:14:02.833Z,28.40
2019-06-08T12:16:37.863Z,28.40
2019-06-08T12:19:16.629Z,28.40
2019-06-08T12:21:49.823Z,28.20
2019-06-08T12:24:24.219Z,28.50
2019-06-08T12:27:09.037Z,28.50
2019-06-08T12:29:34.474Z,28.30
2019-06-08T12:32:10.459Z,28.10
2019-06-08T12:34:44.650Z,28.10
2019-06-08T12:37:22.219Z,28.10
2019-06-08T12:39:54.849Z,28.10
2019-06-08T12:42:29.946Z,28.10
2019-06-08T12:45:03.830Z,28.10
2019-06-08T12:47:38.339Z,28.20
2019-06-08T12:50:13.943Z,28.60
2019-06-08T12:52:49.097Z,28.60
2019-06-08T12:55:25.428Z,28.50
2019-06-08T12:57:59.291Z,28.60
2019-06-08T13:00:37.800Z,28.60
2019-06-08T13:03:11.683Z,28.70
2019-06-08T13:05:46.090Z,28.30
2019-06-08T13:08:21.727Z,28.20
2019-06-08T13:10:57.496Z,28.30
2019-06-08T13:13:31.867Z,28.30
2019-06-08T13:16:06.191Z,28.50
2019-06-08T13:18:40.826Z,28.80
2019-06-08T13:21:26.515Z,29.00
2019-06-08T13:23:51.347Z,29.20
2019-06-08T13:26:28.536Z,28.80
2019-06-08T13:29:00.905Z,28.40
2019-06-08T13:31:34.738Z,28.20
2019-06-08T13:34:11.056Z,28.30
2019-06-08T13:36:44.911Z,28.30
2019-06-08T13:39:20.116Z,28.10
2019-06-08T13:41:54.673Z,28.10
2019-06-08T13:44:28.882Z,28.10
2019-06-08T13:47:03.236Z,28.30
2019-06-08T13:49:37.744Z,27.90
2019-06-08T13:52:13.563Z,27.60
2019-06-08T13:54:48.015Z,27.60
2019-06-08T13:57:24.690Z,27.70
2019-06-08T13:59:58.351Z,27.60
2019-06-08T14:02:32.170Z,27.80
2019-06-08T14:05:08.172Z,27.80
2019-06-08T14:07:40.770Z,27.90
2019-06-08T14:10:19.597Z,28.00
2019-06-08T14:12:51.080Z,27.80
2019-06-08T14:15:26.114Z,27.80
2019-06-08T14:18:00.747Z,27.80
2019-06-08T14:20:38.257Z,27.80
2019-06-08T14:23:11.532Z,27.50
2019-06-08T14:25:53.236Z,27.40
2019-06-08T14:28:23.270Z,27.80
2019-06-08T14:30:59.323Z,28.10
2019-06-08T14:33:33.798Z,28.50
2019-06-08T14:36:07.959Z,28.70
2019-06-08T14:38:42.679Z,29.40
2019-06-08T14:41:18.241Z,30.10
2019-06-08T14:43:53.968Z,30.30
2019-06-08T14:46:28.743Z,30.30
2019-06-08T14:49:03.543Z,30.20
2019-06-08T14:51:57.742Z,30.40
2019-06-08T14:54:34.980Z,30.20
2019-06-08T14:57:07.840Z,30.00
2019-06-08T14:59:43.537Z,29.60
2019-06-08T15:02:19.593Z,29.30
2019-06-08T15:04:54.770Z,29.30
2019-06-08T15:07:31.364Z,29.50
2019-06-08T15:10:09.774Z,29.90
2019-06-08T15:12:41.502Z,29.90
2019-06-08T15:15:18.294Z,29.90
2019-06-08T15:17:51.474Z,29.40
2019-06-08T15:20:26.190Z,29.40
2019-06-08T15:23:00.596Z,29.50
2019-06-08T15:25:34.481Z,29.50
2019-06-08T15:28:09.484Z,28.50
2019-06-08T15:30:43.489Z,27.50
2019-06-08T15:33:18.123Z,27.20
2019-06-08T15:35:53.462Z,27.00
2019-06-08T15:38:30.140Z,27.00
2019-06-08T15:41:03.276Z,27.00
2019-06-08T15:43:40.227Z,26.80
2019-06-08T15:46:12.756Z,26.70
2019-06-08T15:48:48.499Z,26.30
2019-06-08T15:51:22.436Z,27.30
2019-06-08T15:53:57.923Z,28.10
2019-06-08T15:56:44.124Z,28.50
2019-06-08T15:59:09.312Z,29.50
2019-06-08T16:01:44.734Z,30.00
2019-06-08T16:04:18.920Z,30.70
2019-06-08T16:06:53.145Z,31.20
2019-06-08T16:09:28.046Z,32.00
2019-06-08T16:12:02.694Z,32.40
2019-06-08T16:14:36.715Z,32.50
2019-06-08T16:17:10.411Z,32.70
2019-06-08T16:19:44.117Z,32.60
2019-06-08T16:22:18.137Z,32.80
2019-06-08T16:24:51.834Z,32.80
2019-06-08T16:27:27.640Z,32.90
2019-06-08T16:30:08.637Z,32.50
2019-06-08T16:32:39.736Z,32.50
2019-06-08T16:35:13.694Z,32.00
2019-06-08T16:37:47.945Z,32.10
2019-06-08T16:40:20.942Z,31.80
2019-06-08T16:42:54.244Z,31.60
2019-06-08T16:45:29.045Z,31.90
2019-06-08T16:48:03.575Z,31.30
2019-06-08T16:50:38.522Z,31.00
2019-06-08T16:53:13.945Z,31.00
2019-06-08T16:55:48.399Z,30.70
2019-06-08T16:58:22.665Z,30.60
2019-06-08T17:00:56.795Z,30.40
2019-06-08T17:03:32.863Z,30.20
2019-06-08T17:06:07.256Z,29.80
2019-06-08T17:08:42.675Z,29.50
2019-06-08T17:11:17.271Z,30.00
2019-06-08T17:13:52.333Z,30.10
2019-06-08T17:16:27.669Z,30.10
2019-06-08T17:19:02.607Z,30.00
2019-06-08T17:21:38.514Z,30.10
2019-06-08T17:24:12.882Z,30.30
2019-06-08T17:26:48.943Z,30.10
2019-06-08T17:29:25.844Z,30.10
2019-06-08T17:32:00.838Z,29.70
2019-06-08T17:34:38.097Z,29.40
2019-06-08T17:37:13.209Z,29.20
2019-06-08T17:39:50.877Z,29.50
2019-06-08T17:42:25.890Z,29.50
2019-06-08T17:45:00.642Z,29.50
2019-06-08T17:47:36.391Z,29.40
2019-06-08T17:50:12.669Z,29.20
2019-06-08T17:52:48.466Z,29.00
2019-06-08T17:55:23.966Z,29.20
2019-06-08T17:57:58.426Z,29.20
2019-06-08T18:00:35.319Z,29.40
2019-06-08T18:03:10.478Z,29.60
2019-06-08T18:05:48.462Z,29.80
2019-06-08T18:08:25.333Z,30.00
2019-06-08T18:11:00.912Z,29.70
2019-06-08T18:13:39.085Z,29.90
2019-06-08T18:16:12.817Z,30.00
2019-06-08T18:18:48.075Z,30.10
2019-06-08T18:21:22.385Z,30.10
2019-06-08T18:23:57.330Z,30.10
2019-06-08T18:26:32.158Z,30.00
2019-06-08T18:29:07.906Z,30.00
2019-06-08T18:31:43.005Z,29.80
2019-06-08T18:34:17.907Z,29.60
2019-06-08T18:36:52.136Z,29.60
2019-06-08T18:39:27.252Z,29.40
2019-06-08T18:42:01.705Z,29.40
2019-06-08T18:44:35.648Z,29.30
2019-06-08T18:47:10.046Z,29.40
2019-06-08T18:49:46.192Z,29.60
2019-06-08T18:52:21.338Z,29.40
2019-06-08T18:54:57.714Z,29.40
2019-06-08T18:57:31.396Z,29.50
2019-06-08T19:00:09.144Z,29.70
2019-06-08T19:02:44.902Z,29.40
2019-06-08T19:05:21.262Z,29.20
2019-06-08T19:07:57.223Z,29.30
2019-06-08T19:10:39.480Z,29.40
2019-06-08T19:13:14.629Z,29.30
2019-06-08T19:15:52.832Z,29.30
2019-06-08T19:18:24.409Z,29.30
2019-06-08T19:20:59.948Z,29.40
2019-06-08T19:23:34.469Z,29.50
2019-06-08T19:26:08.701Z,29.40
2019-06-08T19:28:47.815Z,29.40
2019-06-08T19:31:19.611Z,29.50
2019-06-08T19:33:54.890Z,29.50
2019-06-08T19:36:28.578Z,29.50
2019-06-08T19:39:03.587Z,29.30
2019-06-08T19:41:39.429Z,29.20
2019-06-08T19:44:18.143Z,29.20
2019-06-08T19:46:53.290Z,29.10
2019-06-08T19:49:28.295Z,29.00
2019-06-08T19:52:02.272Z,28.90
2019-06-08T19:54:41.720Z,28.90
2019-06-08T19:57:17.184Z,28.90
2019-06-08T19:59:50.370Z,29.00
2019-06-08T20:02:26.995Z,29.00
2019-06-08T20:05:00.053Z,29.00
2019-06-08T20:07:37.927Z,29.00
2019-06-08T20:10:14.387Z,28.80
2019-06-08T20:12:50.868Z,29.00
2019-06-08T20:15:26.582Z,29.00
2019-06-08T20:18:00.422Z,29.00
2019-06-08T20:20:34.460Z,28.90
2019-06-08T20:23:09.749Z,28.80
2019-06-08T20:25:45.137Z,29.00
2019-06-08T20:28:20.890Z,29.10
2019-06-08T20:30:57.811Z,28.80
2019-06-08T20:33:30.705Z,28.90
2019-06-08T20:36:08.068Z,28.90
2019-06-08T20:38:44.001Z,29.00
2019-06-08T20:41:18.580Z,29.00
2019-06-08T20:43:53.655Z,29.00
2019-06-08T20:46:30.696Z,29.00
2019-06-08T20:49:04.465Z,29.00
2019-06-08T20:51:38.831Z,28.80
2019-06-08T20:54:17.112Z,28.70
2019-06-08T20:56:52.037Z,28.70
2019-06-08T20:59:33.221Z,28.70
2019-06-08T21:02:02.766Z,28.60
2019-06-08T21:04:38.363Z,28.50
2019-06-08T21:07:17.381Z,28.40
2019-06-08T21:09:53.496Z,28.30
2019-06-08T21:12:29.023Z,28.20
2019-06-08T21:15:04.265Z,28.20
2019-06-08T21:17:38.908Z,28.20
2019-06-08T21:20:18.313Z,28.20
2019-06-08T21:22:59.507Z,28.00
2019-06-08T21:25:32.315Z,28.00
2019-06-08T21:28:10.233Z,28.00
2019-06-08T21:30:44.337Z,27.90
2019-06-08T21:33:19.105Z,27.90
2019-06-08T21:35:58.336Z,27.80
2019-06-08T21:38:30.691Z,27.70
2019-06-08T21:41:08.080Z,27.70
2019-06-08T21:43:42.858Z,27.70
2019-06-08T21:46:17.177Z,27.60
2019-06-08T21:48:51.951Z,27.70
2019-06-08T21:51:26.790Z,27.70
2019-06-08T21:54:00.898Z,27.60
2019-06-08T21:56:37.065Z,27.60
2019-06-08T21:59:11.793Z,27.60
2019-06-08T22:01:50.414Z,27.60
2019-06-08T22:04:23.450Z,27.50
2019-06-08T22:07:01.058Z,27.50
2019-06-08T22:09:33.826Z,27.40
2019-06-08T22:12:08.091Z,27.30
2019-06-08T22:14:41.832Z,27.30
2019-06-08T22:17:18.826Z,27.30
2019-06-08T22:19:53.117Z,27.20
2019-06-08T22:22:28.528Z,27.20
2019-06-08T22:25:02.124Z,27.20
2019-06-08T22:27:37.959Z,27.20
2019-06-08T22:30:18.476Z,27.10
2019-06-08T22:32:47.556Z,27.20
2019-06-08T22:35:21.814Z,27.20
2019-06-08T22:37:58.095Z,27.20
2019-06-08T22:40:33.122Z,27.00
2019-06-08T22:43:08.076Z,26.90
2019-06-08T22:45:43.356Z,26.90
2019-06-08T22:48:18.780Z,26.80
2019-06-08T22:50:54.879Z,26.80
2019-06-08T22:53:30.086Z,26.70
2019-06-08T22:56:04.505Z,26.60
2019-06-08T22:58:39.605Z,26.60
2019-06-08T23:01:13.892Z,26.50
2019-06-08T23:03:47.919Z,26.40
2019-06-08T23:06:22.316Z,26.40
2019-06-08T23:09:00.759Z,26.30
2019-06-08T23:11:32.485Z,26.20
2019-06-08T23:14:12.772Z,26.30
2019-06-08T23:16:42.397Z,26.20
2019-06-08T23:19:17.414Z,26.10
2019-06-08T23:21:52.157Z,26.00
2019-06-08T23:24:27.564Z,26.00
2019-06-08T23:27:02.184Z,26.00
2019-06-08T23:29:38.146Z,25.90
2019-06-08T23:32:12.481Z,26.00
2019-06-08T23:34:47.796Z,26.10
2019-06-08T23:37:23.617Z,26.10
2019-06-08T23:40:00.503Z,26.00
2019-06-08T23:42:34.729Z,26.00
2019-06-08T23:45:10.714Z,25.90
2019-06-08T23:47:48.034Z,25.90
2019-06-08T23:50:22.743Z,25.90
2019-06-08T23:52:58.141Z,25.90
2019-06-08T23:55:32.939Z,25.80
2019-06-08T23:58:09.523Z,25.80
